W2JV-2 Weather Reports


Display with metric or nautical units.
time (UTC)temp
F
wind
direction
speed
MPH
gust
MPH
rain 1hr
in
rain 24hr
in
rain mn
in
humidity
%
barometer
mb
20190121030008 17 341 6.0 14.0 0.00 1.67 1.57 70 1004.4
20190121025005 17 343 6.0 16.0 0.00 1.67 1.57 71 1004.0
20190121024006 17 336 5.0 13.0 0.00 1.67 1.57 71 1003.7
20190121023006 17 338 7.0 17.0 0.00 1.67 1.57 71 1003.3
20190121022005 18 352 7.0 14.0 0.00 1.67 1.57 71 1003.0
20190121021005 18 308 8.0 15.0 0.00 1.67 1.57 73 1002.9
20190121020004 18 319 9.0 15.0 0.00 1.67 1.57 72 1002.8
20190121015005 19 309 6.0 18.0 0.00 1.67 1.57 73 1002.7
20190121014006 19 339 8.0 14.0 0.00 1.67 1.57 71 1002.5
20190121013005 19 330 6.0 17.0 0.00 1.67 1.57 73 1002.3
20190121012005 20 319 9.0 17.0 0.00 1.67 1.57 72 1002.2
20190121011005 20 322 7.0 12.0 0.00 1.67 1.57 73 1001.9
20190121010018 20 313 11.0 20.0 0.00 1.67 1.57 72 1001.7
20190121005009 21 333 10.0 20.0 0.00 1.67 1.57 72 1001.4
20190121004005 22 327 7.0 16.0 0.00 1.67 1.57 72 1001.1
20190121003006 23 326 9.0 16.0 0.00 1.67 1.57 73 1001.0
20190121002005 23 351 7.0 14.0 0.00 1.67 1.57 73 1000.9
20190121001006 24 343 6.0 17.0 0.00 1.67 1.57 74 1000.6
20190121000005 25 336 6.0 14.0 0.00 1.67 1.57 75 1000.3
20190120235005 25 319 6.0 13.0 0.00 1.67 1.57 76 999.8
20190120234005 26 316 6.0 12.0 0.00 1.67 1.57 77 999.3
20190120233007 27 308 7.0 15.0 0.00 1.67 1.57 76 999.0
20190120232006 27 321 6.0 15.0 0.00 1.67 1.57 77 998.7
20190120231005 28 324 7.0 13.0 0.00 1.67 1.57 77 998.4
20190120230005 28 332 5.0 12.0 0.00 1.67 1.57 79 998.1
20190120225004 29 310 5.0 14.0 0.00 1.67 1.57 80 998.1
20190120224005 30 325 5.0 12.0 0.00 1.67 1.57 82 997.9
20190120223005 30 308 5.0 12.0 0.00 1.67 1.57 82 997.7
20190120222005 30 354 5.0 10.0 0.00 1.67 1.57 82 997.3
20190120221004 30 326 6.0 10.0 0.00 1.67 1.57 82 997.0
20190120220005 30 323 5.0 14.0 0.00 1.67 1.57 81 996.6
20190120215006 30 346 4.0 12.0 0.00 1.67 1.57 82 996.4
20190120214005 30 339 6.0 12.0 0.00 1.67 1.57 81 996.4
20190120213006 30 322 5.0 12.0 0.00 1.67 1.57 80 996.0
20190120212005 30 345 6.0 12.0 0.00 1.67 1.57 81 995.6
20190120211005 31 6 3.0 12.0 0.00 1.67 1.57 82 995.1
20190120210005 31 326 6.0 17.0 0.00 1.67 1.57 80 994.8
20190120205005 32 356 5.0 17.0 0.00 1.67 1.57 83 994.6
20190120204005 32 12 7.0 15.0 0.00 1.67 1.57 83 994.4
20190120203005 32 357 6.0 15.0 0.00 1.67 1.57 84 994.1
20190120202005 33 343 6.0 14.0 0.00 1.67 1.57 84 993.6
20190120201004 34 340 6.0 14.0 0.00 1.67 1.57 85 992.9
20190120200005 35 355 7.0 14.0 0.00 1.67 1.57 86 992.6
20190120195004 36 0 7.0 16.0 0.00 1.67 1.57 88 992.7
20190120194006 36 354 7.0 14.0 0.00 1.67 1.57 89 992.3
20190120193005 37 354 6.0 12.0 0.00 1.67 1.57 90 992.0
20190120192005 37 340 5.0 10.0 0.00 1.67 1.57 91 991.6
20190120191005 38 337 6.0 9.0 0.00 1.67 1.57 92 990.9
20190120190004 37 347 6.0 12.0 0.00 1.67 1.57 92 991.0
20190120185005 38 357 5.0 8.0 0.00 1.67 1.57 93 990.6
20190120184005 38 359 5.0 12.0 0.00 1.67 1.57 93 990.3
20190120183005 37 12 5.0 7.0 0.00 1.67 1.57 93 990.1
20190120182005 37 346 5.0 8.0 0.00 1.67 1.57 93 990.2
20190120181004 37 352 5.0 10.0 0.01 1.67 1.57 92 990.2
20190120180006 38 336 6.0 12.0 0.01 1.67 1.57 92 989.9
20190120175005 39 358 6.0 12.0 0.01 1.67 1.57 92 990.0
20190120174004 40 347 7.0 13.0 0.01 1.67 1.57 92 989.8
20190120173006 42 354 6.0 12.0 0.01 1.67 1.57 92 989.5
20190120172005 46 357 5.0 13.0 0.01 1.67 1.57 95 989.2
20190120171005 50 269 5.0 7.0 0.00 1.66 1.56 96 989.0
20190120170004 50 225 5.0 9.0 0.00 1.66 1.56 96 988.3
20190120165005 50 194 5.0 10.0 0.00 1.66 1.56 96 988.4
20190120164007 49 192 6.0 12.0 0.00 1.66 1.56 96 988.5
20190120163005 47 190 3.0 9.0 0.03 1.66 1.56 96 989.0
20190120162005 46 144 4.0 7.0 0.04 1.66 1.56 96 989.8
20190120161005 45 210 2.0 5.0 0.04 1.66 1.56 95 989.3
20190120160004 43 166 3.0 5.0 0.05 1.66 1.56 95 989.8
20190120155005 41 185 2.0 3.0 0.06 1.66 1.56 95 990.8
20190120154005 40 86 1.0 3.0 0.07 1.66 1.56 94 991.0
20190120153005 40 81 0.0 2.0 0.05 1.63 1.53 94 990.7
20190120152005 39 81 2.0 3.0 0.07 1.62 1.52 94 990.7
20190120151005 39 73 0.0 3.0 0.09 1.62 1.52 95 991.5
20190120150006 39 16 1.0 3.0 0.11 1.61 1.51 94 991.7
20190120145005 39 34 2.0 5.0 0.12 1.60 1.50 94 991.5
20190120144006 39 109 0.0 3.0 0.14 1.59 1.49 94 992.4
20190120143004 38 127 0.0 3.0 0.16 1.58 1.48 94 992.9
20190120142004 38 19 0.0 2.0 0.16 1.55 1.45 94 993.6
20190120141005 38 317 1.0 3.0 0.16 1.53 1.43 94 993.9
20190120140006 38 91 0.0 1.0 0.16 1.50 1.40 94 994.3
20190120135005 38 72 0.0 3.0 0.17 1.48 1.38 94 994.7
20190120134005 38 258 1.0 5.0 0.18 1.45 1.35 94 995.0
20190120133005 38 235 1.0 3.0 0.21 1.42 1.32 94 995.3
20190120132005 38 50 1.0 3.0 0.23 1.39 1.29 94 994.9
20190120131004 37 26 2.0 5.0 0.25 1.37 1.27 94 995.3
20190120130005 37 137 1.0 6.0 0.24 1.34 1.24 94 995.6
20190120125005 37 64 1.0 3.0 0.23 1.31 1.21 94 996.1
20190120124004 37 64 1.0 5.0 0.20 1.27 1.17 94 996.4
20190120123005 37 59 1.0 6.0 0.16 1.21 1.11 94 997.5
20190120122004 37 31 3.0 6.0 0.12 1.16 1.06 94 997.6
20190120121005 37 35 4.0 6.0 0.10 1.12 1.02 94 997.5
20190120120004 37 87 2.0 6.0 0.09 1.10 1.00 94 998.2
20190120115005 37 310 2.0 7.0 0.09 1.08 0.98 94 998.2
20190120114004 37 89 3.0 7.0 0.11 1.07 0.97 94 997.5
20190120113005 37 34 3.0 7.0 0.12 1.05 0.95 94 998.2
20190120112005 37 354 2.0 7.0 0.14 1.04 0.94 93 998.5
20190120111004 37 40 4.0 7.0 0.14 1.02 0.92 93 998.9
20190120110004 37 28 5.0 9.0 0.15 1.01 0.91 94 999.1
20190120105004 37 23 3.0 12.0 0.15 0.99 0.89 94 999.5
20190120104005 37 29 3.0 6.0 0.15 0.96 0.86 94 1000.0
20190120103005 37 17 1.0 9.0 0.13 0.93 0.83 94 1000.7
20190120102005 37 11 4.0 10.0 0.11 0.90 0.80 94 1000.4
20190120101005 37 66 2.0 8.0 0.12 0.88 0.78 94 1001.2
20190120100004 37 351 3.0 10.0 0.12 0.86 0.76 93 1001.2
20190120095005 38 44 3.0 7.0 0.10 0.84 0.74 94 1001.3
20190120094004 37 23 3.0 7.0 0.09 0.81 0.71 93 1001.7
20190120093007 38 41 2.0 8.0 0.10 0.80 0.70 93 1001.7
20190120092005 38 13 2.0 7.0 0.11 0.79 0.69 93 1002.1
20190120091004 38 34 3.0 8.0 0.09 0.76 0.66 93 1002.2
20190120090003 38 0 2.0 7.0 0.10 0.74 0.64 94 1002.8
20190120085005 38 23 3.0 7.0 0.17 0.74 0.64 94 1003.0
20190120084005 38 30 3.0 7.0 0.20 0.72 0.62 93 1003.1
20190120083005 38 40 3.0 7.0 0.21 0.70 0.60 93 1004.2
20190120082005 38 26 3.0 7.0 0.22 0.68 0.58 93 1004.8
20190120081004 39 315 2.0 9.0 0.25 0.67 0.57 94 1005.1
20190120080005 38 31 3.0 6.0 0.24 0.64 0.54 94 1006.1
20190120075004 38 356 2.0 7.0 0.22 0.57 0.47 93 1007.3
20190120074005 38 358 2.0 5.0 0.22 0.52 0.42 94 1006.3
20190120073005 38 29 2.0 3.0 0.23 0.49 0.39 94 1006.4
20190120072004 38 24 1.0 5.0 0.22 0.46 0.36 94 1006.9
20190120071004 37 12 2.0 3.0 0.20 0.42 0.32 93 1007.0
20190120070004 37 40 1.0 3.0 0.20 0.40 0.30 94 1007.1
20190120065005 37 40 3.0 3.0 0.17 0.35 0.25 93 1007.5
20190120064005 37 18 2.0 3.0 0.14 0.30 0.20 93 1007.7
20190120063005 36 59 2.0 3.0 0.12 0.26 0.16 93 1008.2
20190120062005 36 348 2.0 5.0 0.12 0.24 0.14 93 1008.6
20190120061005 36 5 1.0 3.0 0.11 0.22 0.12 93 1008.3
20190120060014 35 43 1.0 3.0 0.10 0.20 0.10 93 1008.5
20190120055014 35 22 1.0 3.0 0.09 0.18 0.08 92 1009.2
20190120054015 35 30 1.0 3.0 0.08 0.16 0.06 92 1009.6
20190120053015 35 24 2.0 3.0 0.08 0.14 0.04 92 1010.1
20190120052014 35 36 1.0 3.0 0.09 0.12 0.02 92 1010.0
20190120051014 35 23 0.0 5.0 0.01 0.11 0.01 92 1010.4
20190120050014 35 155 1.0 3.0 0.00 0.10 0.00 92 1010.9
20190120045014 35 111 1.0 8.0 0.09 0.09 0.09 92 1011.1
20190120044014 35 44 2.0 6.0 0.08 0.08 0.08 92 1011.5
20190120043015 34 44 0.0 5.0 0.06 0.06 0.06 91 1011.6
20190120042014 34 57 1.0 7.0 0.03 0.03 0.03 91 1012.2
20190120041014 34 30 1.0 5.0 0.00 0.00 0.00 91 1012.7
20190120040014 34 49 0.0 5.0 0.00 0.00 0.00 90 1012.9
20190120035014 34 91 1.0 6.0 0.00 0.00 0.00 89 1012.9
20190120034015 34 76 1.0 5.0 0.00 0.00 0.00 87 1012.7
20190120033014 34 102 2.0 7.0 0.00 0.00 0.00 87 1013.3
20190120032014 34 90 1.0 6.0 0.00 0.00 0.00 83 1013.5
20190120031015 34 47 2.0 6.0 0.00 0.00 0.00 81 1013.8